Las Vegas, Nevada
Traffic Map
Current Weather Conditions
Las Vegas, Nevada
Few Clouds
Few Clouds
37°
Feels Like: 37°
Wind Chill: 37° Ceiling: Unl
Heat Index: 37° Visibility: 10mi
Dew Point: Wind: 3mph
Humidity: 29% Direction: 190° (S)
Pressure: 30.21in Gusts: 0mph
Raw Report DataKLAS 080956Z 19003KT 10SM FEW250 03/M14 A3021 RMK AO2 SLP233 T00281139
Traffic Incident Summary
Active as of:
Severity:
Category:
InformationThere was an issue retrieving the traffic information for this location. Please try a different location or try again shortly.
Advertisements
Track Severe Weather on mobile